Data for 12/02/2016

Time Sea-Level Adjusted Pressure Absolute Pressure Temperature Relative Humidity Dew Point   
(mb) (inHg) (mb) (inHg) (C) (F) (%) (C) (F)
00:05 1020 30.12 849 25.07 -2.9 26.8 90 -4.3 24.3
00:10 1020 30.12 850 25.1 -2.9 26.8 90 -4.3 24.3
00:15 1020 30.12 850 25.1 -2.9 26.8 90 -4.2 24.4
00:20 1020 30.12 850 25.1 -2.9 26.8 91 -4.2 24.4
00:25 1020 30.12 850 25.1 -2.9 26.8 91 -4.1 24.5
00:30 1021 30.15 850 25.1 -2.9 26.8 91 -4.1 24.6
00:35 1021 30.15 850 25.1 -2.9 26.8 91 -4.1 24.6
00:40 1021 30.15 850 25.1 -2.9 26.8 91 -4.1 24.6
00:45 1021 30.15 850 25.1 -2.9 26.8 91 -4.1 24.6
00:50 1021 30.15 850 25.1 -2.9 26.8 92 -4.1 24.6
00:55 1021 30.15 850 25.1 -2.9 26.7 92 -4.1 24.6
01:00 1021 30.15 850 25.1 -2.9 26.8 92 -4 24.7
01:05 1021 30.15 850 25.1 -2.9 26.7 92 -4.1 24.6
01:10 1021 30.15 850 25.1 -2.9 26.7 92 -4.1 24.6
01:15 1021 30.15 850 25.1 -2.9 26.7 92 -4.1 24.6
01:20 1021 30.15 850 25.1 -3 26.7 92 -4.2 24.5
01:25 1021 30.15 850 25.1 -3 26.6 92 -4.2 24.5
01:30 1021 30.15 850 25.1 -3 26.5 92 -4.2 24.4
01:35 1021 30.15 850 25.1 -3 26.6 92 -4.1 24.6
01:40 1021 30.15 850 25.1 -3 26.6 92 -4.1 24.6
01:45 1021 30.15 850 25.1 -3 26.6 92 -4.1 24.5
01:50 1021 30.15 850 25.1 -3 26.6 92 -4.2 24.5
01:55 1021 30.15 850 25.1 -3.1 26.4 92 -4.2 24.4
02:00 1021 30.15 850 25.1 -3.1 26.3 92 -4.2 24.4
02:05 1021 30.15 850 25.1 -3.1 26.4 92 -4.2 24.4
02:10 1021 30.15 850 25.1 -3.1 26.3 92 -4.3 24.2
02:15 1021 30.15 850 25.1 -3.2 26.2 91 -4.5 24
02:20 1021 30.15 850 25.1 -3.2 26.2 90 -4.6 23.7
02:25 1021 30.15 850 25.1 -3.2 26.2 90 -4.7 23.6
02:30 1021 30.15 851 25.13 -3.2 26.3 89 -4.8 23.4
02:35 1021 30.15 851 25.13 -3.2 26.3 89 -4.8 23.3
02:40 1022 30.18 851 25.13 -3.2 26.2 88 -4.9 23.1
02:45 1022 30.18 851 25.13 -3.2 26.2 88 -5 23.1
02:50 1022 30.18 851 25.13 -3.2 26.2 87 -5 22.9
02:55 1022 30.18 851 25.13 -3.2 26.2 87 -5.1 22.8
03:00 1022 30.18 851 25.13 -3.2 26.3 86 -5.1 22.7
03:05 1022 30.18 851 25.13 -3.1 26.4 86 -5.1 22.8
03:10 1022 30.18 851 25.13 -3.1 26.5 86 -5.2 22.7
03:15 1022 30.18 851 25.13 -3 26.6 86 -5 23
03:20 1022 30.18 851 25.13 -2.9 26.7 87 -4.7 23.5
03:25 1022 30.18 851 25.13 -3 26.6 89 -4.6 23.8
03:30 1022 30.18 851 25.13 -3.1 26.5 89 -4.6 23.8
03:35 1022 30.18 851 25.13 -3.1 26.5 87 -4.9 23.2
03:40 1022 30.18 851 25.13 -3 26.6 87 -4.8 23.3
03:45 1022 30.18 851 25.13 -3 26.6 87 -4.8 23.3
03:50 1022 30.18 851 25.13 -3 26.6 86 -5 23
03:55 1022 30.18 851 25.13 -3 26.6 86 -5 23
04:00 1022 30.18 851 25.13 -3 26.5 86 -5.1 22.8
04:05 1022 30.18 851 25.13 -3.1 26.5 84 -5.4 22.3
04:10 1022 30.18 851 25.13 -3.1 26.5 84 -5.4 22.3
04:15 1022 30.18 851 25.13 -3.1 26.4 84 -5.5 22.1
04:20 1022 30.18 851 25.13 -3.2 26.3 83 -5.6 21.9
04:25 1022 30.18 851 25.13 -3.2 26.2 83 -5.7 21.7
04:30 1022 30.18 851 25.13 -3.3 26.1 82 -5.9 21.4
04:35 1022 30.18 851 25.13 -3.3 26.1 82 -6 21.2
04:40 1022 30.18 851 25.13 -3.2 26.2 82 -5.9 21.3
04:45 1022 30.18 851 25.13 -3.3 26.1 82 -5.9 21.3
04:50 1022 30.18 851 25.13 -3.3 26.1 82 -5.9 21.3
04:55 1022 30.18 851 25.13 -3.3 26.1 82 -6 21.3
05:00 1022 30.18 851 25.13 -3.3 26.1 82 -6 21.2
05:05 1022 30.18 851 25.13 -3.3 26.1 82 -5.9 21.3
05:10 1022 30.18 851 25.13 -3.3 26.1 81 -6 21.1
05:15 1022 30.18 851 25.13 -3.3 26.1 81 -6 21.1
05:20 1022 30.18 851 25.13 -3.2 26.2 81 -6.1 21.1
05:25 1022 30.18 852 25.16 -3.2 26.2 80 -6.1 21
05:30 1022 30.18 852 25.16 -3.1 26.4 79 -6.2 20.9
05:35 1022 30.18 852 25.16 -3 26.5 79 -6.2 20.8
05:40 1022 30.18 852 25.16 -3 26.6 79 -6.1 21
05:45 1022 30.18 852 25.16 -3 26.6 79 -6.1 20.9
05:50 1022 30.18 852 25.16 -2.9 26.7 78 -6.2 20.9
05:55 1022 30.18 852 25.16 -2.9 26.7 78 -6.3 20.7
06:00 1022 30.18 852 25.16 -2.9 26.7 79 -6.2 20.9
06:05 1023 30.21 852 25.16 -3 26.7 76 -6.6 20.2
06:10 1023 30.21 852 25.16 -3 26.7 77 -6.5 20.4
06:15 1023 30.21 852 25.16 -3 26.6 76 -6.6 20.1
06:20 1023 30.21 852 25.16 -3 26.5 76 -6.6 20
06:25 1023 30.21 852 25.16 -3 26.6 76 -6.7 19.9
06:30 1023 30.21 852 25.16 -3 26.6 76 -6.6 20.1
06:35 1022 30.18 852 25.16 -3 26.7 78 -6.4 20.5
06:40 1023 30.21 852 25.16 -3 26.6 80 -6 21.2
06:45 1023 30.21 852 25.16 -3.2 26.3 82 -5.8 21.6
06:50 1022 30.18 852 25.16 -3.4 25.8 84 -5.7 21.7
06:55 1022 30.18 852 25.16 -3.6 25.5 84 -5.9 21.3
07:00 1023 30.21 852 25.16 -3.7 25.4 84 -6 21.2
07:05 1023 30.21 852 25.16 -3.7 25.3 82 -6.3 20.7
07:10 1023 30.21 852 25.16 -3.7 25.4 82 -6.3 20.7
07:15 1023 30.21 852 25.16 -3.7 25.4 83 -6.2 20.8
07:20 1023 30.21 852 25.16 -3.7 25.4 83 -6.1 21
07:25 1023 30.21 852 25.16 -3.7 25.4 83 -6.2 20.8
07:30 1023 30.21 852 25.16 -3.7 25.4 82 -6.4 20.6
07:35 1023 30.21 852 25.16 -3.6 25.6 80 -6.6 20.2
07:40 1023 30.21 852 25.16 -3.6 25.6 81 -6.4 20.5
07:45 1023 30.21 852 25.16 -3.5 25.7 80 -6.5 20.3
07:50 1023 30.21 852 25.16 -3.4 25.9 80 -6.3 20.7
07:55 1023 30.21 852 25.16 -3.5 25.7 82 -6.2 20.8
08:00 1023 30.21 852 25.16 -3.7 25.3 81 -6.5 20.2
08:05 1023 30.21 852 25.16 -3.9 25 80 -6.8 19.7
08:10 1023 30.21 852 25.16 -4 24.8 76 -7.6 18.4
08:15 1023 30.21 852 25.16 -4 24.9 76 -7.7 18.2
08:20 1023 30.21 852 25.16 -4 24.8 74 -8 17.6
08:25 1023 30.21 852 25.16 -4 24.7 74 -8 17.5
08:30 1023 30.21 852 25.16 -4.3 24.3 73 -8.3 17
08:35 1023 30.21 852 25.16 -4.4 24.1 73 -8.6 16.5
08:40 1023 30.21 852 25.16 -4.6 23.7 73 -8.7 16.3
08:45 1023 30.21 852 25.16 -5 23.1 73 -9.1 15.6
08:50 1023 30.21 852 25.16 -5 23.1 73 -9.1 15.6
08:55 1023 30.21 852 25.16 -4.7 23.5 72 -9 15.8
09:00 1023 30.21 852 25.16 -4.7 23.6 72 -8.9 16
09:05 1023 30.21 852 25.16 -4.6 23.7 75 -8.5 16.8
09:10 1023 30.21 852 25.16 -4.8 23.3 75 -8.6 16.6
09:15 1023 30.21 852 25.16 -5 22.9 75 -8.8 16.1
09:20 1023 30.21 853 25.19 -5.3 22.5 77 -8.8 16.2
09:25 1023 30.21 853 25.19 -5.3 22.5 77 -8.7 16.4
09:30 1023 30.21 853 25.19 -4.9 23.2 75 -8.7 16.4
09:35 1023 30.21 853 25.19 -4.6 23.8 74 -8.5 16.6
09:40 1023 30.21 853 25.19 -4.5 23.9 73 -8.7 16.4
09:45 1023 30.21 853 25.19 -4.2 24.4 71 -8.7 16.4
09:50 1023 30.21 853 25.19 -4.2 24.4 72 -8.5 16.7
09:55 1023 30.21 853 25.19 -4.2 24.5 73 -8.2 17.2
10:00 1023 30.21 853 25.19 -3.9 24.9 72 -8.3 17.1
10:05 1023 30.21 853 25.19 -3.8 25.2 73 -7.9 17.7
10:10 1023 30.21 853 25.19 -3.7 25.3 73 -8 17.7
10:15 1023 30.21 853 25.19 -3.6 25.6 71 -8.1 17.5
10:20 1023 30.21 853 25.19 -3.5 25.7 73 -7.7 18.1
10:25 1024 30.24 853 25.19 -3.3 26 73 -7.6 18.4
10:30 1024 30.24 853 25.19 -3.1 26.4 71 -7.6 18.4
10:35 1024 30.24 853 25.19 -3 26.6 72 -7.4 18.7
10:40 1024 30.24 853 25.19 -2.8 26.9 71 -7.4 18.7
10:45 1024 30.24 853 25.19 -2.7 27.1 69 -7.6 18.4
10:50 1024 30.24 853 25.19 -2.5 27.6 69 -7.4 18.7
10:55 1024 30.24 853 25.19 -2.2 28 68 -7.4 18.7
11:00 1024 30.24 853 25.19 -2 28.4 67 -7.4 18.7
11:05 1024 30.24 853 25.19 -1.9 28.6 66 -7.5 18.6
11:10 1024 30.24 853 25.19 -1.8 28.7 66 -7.4 18.7
11:15 1024 30.24 853 25.19 -1.8 28.7 67 -7.2 19.1
11:20 1024 30.24 853 25.19 -1.7 29 66 -7.2 19
11:25 1024 30.24 853 25.19 -1.8 28.8 67 -7.1 19.3
11:30 1024 30.24 853 25.19 -1.7 28.9 67 -7.1 19.2
11:35 1024 30.24 853 25.19 -1.8 28.8 66 -7.2 19
11:40 1024 30.24 853 25.19 -1.9 28.5 67 -7.3 18.9
11:45 1024 30.24 853 25.19 -1.7 28.9 65 -7.4 18.6
11:50 1024 30.24 853 25.19 -1.7 28.9 66 -7.3 18.9
11:55 1024 30.24 853 25.19 -1.7 29 65 -7.5 18.5
12:00 1024 30.24 853 25.19 -1.8 28.7 67 -7.1 19.2
12:05 1024 30.24 853 25.19 -1.6 29.1 66 -7.1 19.2
12:10 1024 30.24 853 25.19 -1.5 29.3 65 -7.2 19.1
12:15 1023 30.21 853 25.19 -1.5 29.3 65 -7.2 19
12:20 1024 30.24 853 25.19 -1.1 30.1 63 -7.3 18.8
12:25 1024 30.24 853 25.19 -0.9 30.5 61 -7.4 18.7
12:30 1023 30.21 853 25.19 -0.7 30.7 61 -7.3 18.9
12:35 1023 30.21 853 25.19 -0.5 31.1 61 -7.1 19.2
12:40 1023 30.21 852 25.16 -0.4 31.3 60 -7.3 18.8
12:45 1023 30.21 852 25.16 -0.3 31.5 59 -7.3 18.9
12:50 1023 30.21 852 25.16 -0.7 30.8 60 -7.5 18.4
12:55 1023 30.21 852 25.16 -0.9 30.4 60 -7.7 18.1
13:00 1023 30.21 852 25.16 -1.2 29.9 62 -7.5 18.6
13:05 1023 30.21 852 25.16 -1 30.2 60 -7.8 18
13:10 1023 30.21 852 25.16 -0.8 30.5 60 -7.7 18.2
13:15 1023 30.21 852 25.16 -0.8 30.5 59 -7.8 18
13:20 1023 30.21 852 25.16 -1 30.2 60 -7.7 18.1
13:25 1023 30.21 852 25.16 -1.1 30.1 60 -7.9 17.8
13:30 1023 30.21 852 25.16 -0.2 31.7 55 -8.1 17.4
13:35 1023 30.21 852 25.16 1 33.8 50 -8.2 17.2
13:40 1023 30.21 852 25.16 1 33.8 50 -8.3 17.1
13:45 1022 30.18 852 25.16 1 33.8 53 -7.4 18.7
13:50 1022 30.18 852 25.16 0.8 33.4 53 -7.8 18
13:55 1022 30.18 852 25.16 0.9 33.6 52 -7.9 17.9
14:00 1022 30.18 851 25.13 1.2 34.1 50 -8.2 17.2
14:05 1022 30.18 851 25.13 1.1 33.9 50 -8.2 17.2
14:10 1022 30.18 851 25.13 1.4 34.5 51 -7.6 18.3
14:15 1022 30.18 851 25.13 1.3 34.4 49 -8.3 17.1
14:20 1022 30.18 851 25.13 1.4 34.5 50 -7.9 17.8
14:25 1022 30.18 851 25.13 1.4 34.4 50 -8 17.6
14:30 1022 30.18 851 25.13 1.4 34.5 52 -7.5 18.5
14:35 1022 30.18 851 25.13 1.1 34 52 -7.7 18.2
14:40 1022 30.18 851 25.13 1.1 34 51 -7.8 17.9
14:45 1022 30.18 851 25.13 1.5 34.6 49 -8 17.6
14:50 1022 30.18 851 25.13 1.6 34.9 47 -8.4 16.9
14:55 1021 30.15 851 25.13 0.9 33.7 54 -7.5 18.5
15:00 1021 30.15 851 25.13 -0.1 31.9 55 -8.1 17.4
15:05 1021 30.15 851 25.13 -0.1 31.8 53 -8.7 16.4
15:10 1021 30.15 850 25.1 0.9 33.6 50 -8.5 16.8
15:15 1021 30.15 850 25.1 0.7 33.2 52 -8.1 17.4
15:20 1021 30.15 850 25.1 0.3 32.6 49 -9.2 15.4
15:25 1021 30.15 850 25.1 0.3 32.5 50 -9 15.9
15:30 1021 30.15 850 25.1 0.9 33.7 46 -9.4 15.2
15:35 1021 30.15 850 25.1 1.3 34.4 46 -9 15.8
15:40 1021 30.15 850 25.1 0.7 33.2 50 -8.5 16.7
15:45 1021 30.15 850 25.1 0.1 32.3 49 -9.5 15
15:50 1021 30.15 850 25.1 0.9 33.7 47 -9.1 15.7
15:55 1021 30.15 850 25.1 1.1 34 47 -9 15.8
16:00 1021 30.15 850 25.1 1.2 34.2 48 -8.5 16.7
16:05 1021 30.15 850 25.1 0.9 33.6 46 -9.4 15.2
16:10 1021 30.15 850 25.1 1.5 34.7 44 -9.5 14.9
16:15 1021 30.15 850 25.1 1.5 34.6 45 -9.2 15.5
16:20 1021 30.15 850 25.1 1 33.9 46 -9.2 15.4
16:25 1021 30.15 850 25.1 0.8 33.5 47 -9.3 15.3
16:30 1021 30.15 850 25.1 1 33.9 48 -8.8 16.1
16:35 1021 30.15 850 25.1 0.8 33.4 46 -9.7 14.6
16:40 1021 30.15 850 25.1 0.7 33.3 50 -8.5 16.7
16:45 1021 30.15 850 25.1 0.7 33.2 50 -8.5 16.7
16:50 1021 30.15 850 25.1 -0.2 31.7 54 -8.4 16.8
16:55 1021 30.15 850 25.1 -0.7 30.7 56 -8.6 16.6
17:00 1021 30.15 850 25.1 -0.8 30.5 56 -8.5 16.7
17:05 1021 30.15 850 25.1 -0.6 31 54 -8.7 16.3
17:10 1021 30.15 850 25.1 -0.6 30.9 55 -8.5 16.7
17:15 1021 30.15 850 25.1 -1.1 30 59 -8.2 17.3
17:20 1020 30.12 850 25.1 -1.5 29.2 60 -8.3 17.1
17:25 1020 30.12 850 25.1 -2.1 28.3 61 -8.5 16.6
17:30 1020 30.12 850 25.1 -2.4 27.7 63 -8.4 16.8
17:35 1020 30.12 850 25.1 -2.6 27.2 64 -8.6 16.5
17:40 1020 30.12 850 25.1 -3 26.6 65 -8.8 16.2
17:45 1020 30.12 849 25.07 -3.3 26.1 66 -8.9 16.1
17:50 1020 30.12 849 25.07 -3.4 25.9 66 -8.8 16.1
17:55 1020 30.12 849 25.07 -3.7 25.3 68 -8.8 16.2
18:00 1020 30.12 849 25.07 -3.8 25.1 70 -8.5 16.6
18:05 1020 30.12 849 25.07 -4.1 24.6 71 -8.7 16.4
18:10 1020 30.12 849 25.07 -4.3 24.3 71 -8.7 16.4
18:15 1020 30.12 849 25.07 -4.5 23.9 72 -8.8 16.2
18:20 1020 30.12 849 25.07 -4.6 23.7 73 -8.7 16.3
18:25 1020 30.12 849 25.07 -4.9 23.2 73 -8.9 15.9
18:30 1020 30.12 849 25.07 -5 23.1 73 -9 15.7
18:35 1020 30.12 849 25.07 -5 22.9 73 -9.2 15.5
18:40 1020 30.12 849 25.07 -5.2 22.6 74 -9.1 15.6
18:45 1020 30.12 849 25.07 -5.4 22.4 75 -9.1 15.7
18:50 1019 30.09 849 25.07 -5.3 22.5 73 -9.3 15.2
18:55 1019 30.09 849 25.07 -5.2 22.6 72 -9.5 15
19:00 1019 30.09 849 25.07 -5.3 22.5 73 -9.4 15
19:05 1019 30.09 849 25.07 -5.4 22.2 73 -9.6 14.7
19:10 1019 30.09 849 25.07 -5.5 22.1 73 -9.6 14.8
19:15 1019 30.09 848 25.04 -5.4 22.3 72 -9.7 14.6
19:20 1019 30.09 848 25.04 -5.5 22 73 -9.7 14.5
19:25 1019 30.09 848 25.04 -5.6 21.9 72 -9.9 14.2
19:30 1019 30.09 848 25.04 -5.7 21.7 72 -9.9 14.1
19:35 1019 30.09 848 25.04 -5.9 21.3 73 -10 14
19:40 1019 30.09 848 25.04 -6.2 20.8 74 -10.2 13.6
19:45 1019 30.09 848 25.04 -6.3 20.6 74 -10.3 13.5
19:50 1019 30.09 848 25.04 -6.4 20.5 73 -10.4 13.3
19:55 1019 30.09 848 25.04 -6.7 20 74 -10.5 13.1
20:00 1019 30.09 848 25.04 -6.8 19.8 74 -10.7 12.8
20:05 1019 30.09 848 25.04 -6.7 19.9 74 -10.6 12.9
20:10 1019 30.09 848 25.04 -6.7 20 74 -10.6 13
20:15 1019 30.09 848 25.04 -6.4 20.5 72 -10.5 13
20:20 1019 30.09 848 25.04 -6.2 20.9 72 -10.5 13.2
20:25 1019 30.09 848 25.04 -6.1 21.1 71 -10.5 13
20:30 1019 30.09 848 25.04 -5.9 21.4 71 -10.4 13.3
20:35 1019 30.09 848 25.04 -6 21.2 70 -10.6 13
20:40 1019 30.09 848 25.04 -6.2 20.9 72 -10.5 13.2
20:45 1019 30.09 848 25.04 -6 21.2 71 -10.5 13.1
20:50 1019 30.09 848 25.04 -5.6 21.9 70 -10.3 13.4
20:55 1019 30.09 848 25.04 -5.4 22.2 68 -10.4 13.2
21:00 1019 30.09 848 25.04 -5.6 21.8 70 -10.3 13.5
21:05 1019 30.09 848 25.04 -5.7 21.7 70 -10.4 13.4
21:10 1019 30.09 848 25.04 -5.7 21.7 70 -10.4 13.2
21:15 1019 30.09 848 25.04 -5.7 21.8 70 -10.4 13.4
21:20 1019 30.09 848 25.04 -5.7 21.7 69 -10.4 13.2
21:25 1019 30.09 848 25.04 -5.7 21.7 70 -10.4 13.2
21:30 1019 30.09 848 25.04 -5.7 21.7 69 -10.5 13.2
21:35 1019 30.09 848 25.04 -5.6 22 69 -10.4 13.3
21:40 1019 30.09 848 25.04 -5.3 22.5 67 -10.4 13.3
21:45 1019 30.09 848 25.04 -5 23.1 66 -10.3 13.5
21:50 1019 30.09 848 25.04 -4.8 23.3 69 -9.7 14.5
21:55 1019 30.09 848 25.04 -5 22.9 70 -9.7 14.5
22:00 1019 30.09 848 25.04 -5.1 22.8 68 -10 13.9
22:05 1019 30.09 848 25.04 -4.9 23.2 68 -9.8 14.3
22:10 1019 30.09 848 25.04 -4.8 23.3 69 -9.6 14.7
22:15 1019 30.09 848 25.04 -4.8 23.4 69 -9.6 14.7
22:20 1019 30.09 848 25.04 -5 23.1 71 -9.5 15
22:25 1019 30.09 848 25.04 -5.6 21.9 72 -9.8 14.3
22:30 1019 30.09 848 25.04 -5.8 21.5 74 -9.8 14.4
22:35 1019 30.09 848 25.04 -5.5 22.1 72 -9.8 14.4
22:40 1019 30.09 848 25.04 -5.3 22.5 71 -9.8 14.3
22:45 1019 30.09 848 25.04 -4.8 23.4 68 -9.9 14.2
22:50 1019 30.09 848 25.04 -4.2 24.4 66 -9.6 14.7
22:55 1019 30.09 848 25.04 -4.1 24.6 68 -9.2 15.5
23:00 1019 30.09 848 25.04 -4.3 24.3 69 -9.2 15.5
23:05 1019 30.09 848 25.04 -4.4 24 67 -9.6 14.7
23:10 1019 30.09 848 25.04 -4.3 24.3 67 -9.4 15
23:15 1019 30.09 848 25.04 -4 24.8 63 -10 14
23:20 1019 30.09 848 25.04 -3.7 25.3 66 -9.2 15.4
23:25 1019 30.09 848 25.04 -3.8 25.1 64 -9.7 14.6
23:30 1019 30.09 848 25.04 -4 24.8 63 -10.1 13.9
23:35 1019 30.09 848 25.04 -3.9 25 63 -9.9 14.1
23:40 1019 30.09 848 25.04 -3.7 25.3 64 -9.6 14.7
23:45 1019 30.09 848 25.04 -3.5 25.7 62 -9.7 14.5
23:50 1019 30.09 848 25.04 -3.5 25.8 63 -9.4 15
23:55 1019 30.09 848 25.04 -3.3 26 65 -9.1 15.7
24:00 1019 30.09 848 25.04 -3.4 25.9 65 -9 15.8